首页
METAR-TAF:

METAR-TAF

机场 :

Holland, 密歇根州, 美国

纬度: 42-44-46N, 经度: 086-05-48W, 海拔: 209米

当前天气观测

该预报发布于1小时和3分钟前的11:53 UTC
风速7节,风向西转西北
温度 4°C
湿度 81%
气压 1004 hPa
能見度: 16.1公里
天空无云

METAR: KBIV 091153Z AUTO 29007KT 10SM CLR 04/01 A2965 RMK AO2 SLP045 70029 T00440006 10078 20044 51006

时间: 08:56 (12:56 UTC)


TAF: 丢失

超过4000个机场的气象观测和天气预报(METAR&TAF报告)。

可查询的气象台以黄色和红色小点在地图上表示。

将鼠标移到小点上方,可查看气象台名称。

然后点击查看天气观测和预报。

如需切换地图:点击带黑十字的绿色按钮放大地图;点击带横线的绿色按钮缩小地图;或者点击绿色箭头查看邻近地区的地图。


METAR-TAF: